createdAt,value
2018-07-16T00:00:40.331Z,-51
2018-07-16T00:01:42.099Z,-51
2018-07-16T00:02:38.059Z,-50
2018-07-16T00:03:43.355Z,-55
2018-07-16T00:04:36.055Z,-51
2018-07-16T00:05:39.168Z,-51
2018-07-16T00:06:45.603Z,-50
2018-07-16T00:07:42.061Z,-51
2018-07-16T00:09:48.132Z,-53
2018-07-16T00:10:54.570Z,-51
2018-07-16T00:11:55.039Z,-51
2018-07-16T00:12:59.118Z,-50
2018-07-16T00:14:01.960Z,-50
2018-07-16T00:15:02.942Z,-54
2018-07-16T00:16:04.335Z,-51
2018-07-16T00:17:25.712Z,-51
2018-07-16T00:18:25.603Z,-51
2018-07-16T00:19:28.944Z,-51
2018-07-16T00:20:24.293Z,-51
2018-07-16T00:21:22.572Z,-51
2018-07-16T00:23:34.698Z,-51
2018-07-16T00:24:39.012Z,-51
2018-07-16T00:25:42.826Z,-51
2018-07-16T00:26:40.569Z,-51
2018-07-16T00:27:38.421Z,-51
2018-07-16T00:28:39.441Z,-51
2018-07-16T00:29:38.007Z,-51
2018-07-16T00:30:36.895Z,-51
2018-07-16T00:31:38.614Z,-51
2018-07-16T00:32:37.487Z,-50
2018-07-16T00:33:38.689Z,-51
2018-07-16T00:34:40.514Z,-51
2018-07-16T00:36:46.463Z,-51
2018-07-16T00:37:46.941Z,-50
2018-07-16T00:38:48.529Z,-51
2018-07-16T00:39:46.752Z,-51
2018-07-16T00:40:44.016Z,-50
2018-07-16T00:41:43.097Z,-50
2018-07-16T00:42:45.563Z,-51
2018-07-16T00:43:49.485Z,-51
2018-07-16T00:44:49.575Z,-51
2018-07-16T00:45:49.150Z,-51
2018-07-16T00:46:49.672Z,-51
2018-07-16T00:49:03.618Z,-51
2018-07-16T00:50:01.414Z,-51
2018-07-16T00:50:59.851Z,-51
2018-07-16T00:52:09.133Z,-51
2018-07-16T00:53:05.967Z,-51
2018-07-16T00:54:10.754Z,-52
2018-07-16T00:55:12.016Z,-51
2018-07-16T00:56:06.703Z,-51
2018-07-16T00:57:07.208Z,-52
2018-07-16T00:58:08.586Z,-51
2018-07-16T00:59:03.996Z,-51
2018-07-16T01:00:05.501Z,-51
2018-07-16T01:01:01.047Z,-51
2018-07-16T01:03:19.550Z,-51
2018-07-16T01:04:17.382Z,-50
2018-07-16T01:05:15.336Z,-51
2018-07-16T01:06:18.051Z,-51
2018-07-16T01:07:20.073Z,-50
2018-07-16T01:08:18.126Z,-51
2018-07-16T01:09:24.088Z,-51
2018-07-16T01:10:24.611Z,-50
2018-07-16T01:11:23.435Z,-51
2018-07-16T01:13:29.824Z,-51
2018-07-16T01:14:30.778Z,-51
2018-07-16T01:15:29.671Z,-51
2018-07-16T01:16:29.525Z,-51
2018-07-16T01:17:30.674Z,-50
2018-07-16T01:18:25.938Z,-51
2018-07-16T01:19:26.859Z,-50
2018-07-16T01:20:27.326Z,-51
2018-07-16T01:22:38.613Z,-51
2018-07-16T01:23:37.315Z,-51
2018-07-16T01:24:37.215Z,-51
2018-07-16T01:25:35.840Z,-51
2018-07-16T01:26:53.188Z,-51
2018-07-16T01:27:53.211Z,-50
2018-07-16T01:28:54.923Z,-51
2018-07-16T01:29:53.135Z,-51
2018-07-16T01:30:52.074Z,-51
2018-07-16T01:31:55.214Z,-51
2018-07-16T01:32:52.399Z,-51
2018-07-16T01:33:53.084Z,-51
2018-07-16T01:34:50.822Z,-51
2018-07-16T01:37:02.197Z,-51
2018-07-16T01:38:00.707Z,-51
2018-07-16T01:39:01.452Z,-50
2018-07-16T01:40:01.436Z,-51
2018-07-16T01:41:06.056Z,-53
2018-07-16T01:42:02.521Z,-51
2018-07-16T01:43:13.848Z,-50
2018-07-16T01:44:10.580Z,-51
2018-07-16T01:45:11.301Z,-51
2018-07-16T01:46:15.370Z,-53
2018-07-16T01:47:15.917Z,-52
2018-07-16T01:48:11.801Z,-51
2018-07-16T01:49:11.523Z,-51
2018-07-16T01:50:09.733Z,-50
2018-07-16T01:51:08.558Z,-52
2018-07-16T01:52:11.091Z,-53
2018-07-16T01:53:11.173Z,-51
2018-07-16T01:54:11.583Z,-51
2018-07-16T01:55:10.665Z,-51
2018-07-16T01:56:11.599Z,-50
2018-07-16T01:58:20.814Z,-51
2018-07-16T01:59:28.909Z,-51
2018-07-16T02:00:28.793Z,-51
2018-07-16T02:01:24.480Z,-51
2018-07-16T02:02:26.671Z,-51
2018-07-16T02:03:24.499Z,-51
2018-07-16T02:04:20.850Z,-51
2018-07-16T02:05:34.620Z,-51
2018-07-16T02:06:31.005Z,-51
2018-07-16T02:07:31.102Z,-51
2018-07-16T02:08:32.369Z,-50
2018-07-16T02:10:49.254Z,-51
2018-07-16T02:11:47.018Z,-51
2018-07-16T02:12:50.377Z,-51
2018-07-16T02:13:53.591Z,-51
2018-07-16T02:14:57.540Z,-51
2018-07-16T02:15:55.701Z,-51
2018-07-16T02:16:51.762Z,-51
2018-07-16T02:17:54.405Z,-51
2018-07-16T02:18:56.202Z,-51
2018-07-16T02:19:56.000Z,-51
2018-07-16T02:20:53.397Z,-51
2018-07-16T02:21:51.609Z,-50
2018-07-16T02:24:01.891Z,-51
2018-07-16T02:24:57.241Z,-51
2018-07-16T02:25:56.331Z,-51
2018-07-16T02:26:54.110Z,-51
2018-07-16T02:27:51.917Z,-50
2018-07-16T02:28:49.699Z,-50
2018-07-16T02:29:49.905Z,-50
2018-07-16T02:30:52.384Z,-51
2018-07-16T02:31:56.947Z,-51
2018-07-16T02:32:58.216Z,-51
2018-07-16T02:33:55.371Z,-51
2018-07-16T02:34:54.310Z,-51
2018-07-16T02:35:56.401Z,-54
2018-07-16T02:38:09.027Z,-52
2018-07-16T02:39:12.231Z,-51
2018-07-16T02:40:07.270Z,-51
2018-07-16T02:42:13.734Z,-51
2018-07-16T02:43:12.653Z,-51
2018-07-16T02:44:08.012Z,-51
2018-07-16T02:45:09.251Z,-52
2018-07-16T02:46:10.853Z,-51
2018-07-16T02:47:16.697Z,-50
2018-07-16T02:48:15.635Z,-50
2018-07-16T02:49:17.047Z,-51
2018-07-16T02:51:25.578Z,-52
2018-07-16T02:52:20.875Z,-51
2018-07-16T02:53:26.107Z,-51
2018-07-16T02:54:24.821Z,-51
2018-07-16T02:55:22.414Z,-50
2018-07-16T02:56:24.114Z,-51
2018-07-16T02:57:22.378Z,-51
2018-07-16T02:58:27.895Z,-51
2018-07-16T02:59:22.429Z,-50
2018-07-16T03:00:20.071Z,-51
2018-07-16T03:01:18.108Z,-51
2018-07-16T03:02:16.832Z,-51
2018-07-16T03:03:18.931Z,-51
2018-07-16T03:04:15.462Z,-51
2018-07-16T03:05:15.413Z,-51
2018-07-16T03:06:15.584Z,-51
2018-07-16T03:07:18.659Z,-51
2018-07-16T03:08:16.171Z,-51
2018-07-16T03:09:13.900Z,-50
2018-07-16T03:11:29.556Z,-51
2018-07-16T03:12:28.598Z,-51
2018-07-16T03:13:23.845Z,-51
2018-07-16T03:14:22.774Z,-51
2018-07-16T03:15:29.176Z,-50
2018-07-16T03:16:27.736Z,-51
2018-07-16T03:17:39.633Z,-51
2018-07-16T03:18:39.332Z,-51
2018-07-16T03:19:41.281Z,-51
2018-07-16T03:20:38.033Z,-51
2018-07-16T03:21:49.139Z,-52
2018-07-16T03:22:47.886Z,-51
2018-07-16T03:23:46.041Z,-51
2018-07-16T03:24:47.900Z,-50
2018-07-16T03:25:49.006Z,-51
2018-07-16T03:26:49.091Z,-51
2018-07-16T03:27:44.476Z,-51
2018-07-16T03:28:44.295Z,-51
2018-07-16T03:30:54.743Z,-52
2018-07-16T03:31:51.263Z,-50
2018-07-16T03:32:54.228Z,-51
2018-07-16T03:33:57.552Z,-51
2018-07-16T03:35:03.651Z,-50
2018-07-16T03:35:58.388Z,-51
2018-07-16T03:37:03.678Z,-51
2018-07-16T03:38:08.232Z,-51
2018-07-16T03:39:12.301Z,-52
2018-07-16T03:40:10.154Z,-52
2018-07-16T03:41:07.920Z,-50
2018-07-16T03:42:09.258Z,-50
2018-07-16T03:43:07.013Z,-51
2018-07-16T03:44:08.170Z,-51
2018-07-16T03:45:12.579Z,-51
2018-07-16T03:46:07.571Z,-51
2018-07-16T03:47:09.948Z,-51
2018-07-16T03:48:08.462Z,-51
2018-07-16T03:49:12.855Z,-50
2018-07-16T03:50:16.022Z,-51
2018-07-16T03:51:10.549Z,-51
2018-07-16T03:52:11.470Z,-51
2018-07-16T03:53:12.515Z,-50
2018-07-16T03:54:12.491Z,-51
2018-07-16T03:56:27.134Z,-51
2018-07-16T03:57:27.650Z,-51
2018-07-16T03:58:22.267Z,-51
2018-07-16T03:59:23.739Z,-51
2018-07-16T04:00:26.767Z,-51
2018-07-16T04:01:21.865Z,-50
2018-07-16T04:02:23.219Z,-51
2018-07-16T04:03:24.995Z,-51
2018-07-16T04:04:23.879Z,-51
2018-07-16T04:05:21.707Z,-50
2018-07-16T04:06:30.624Z,-51
2018-07-16T04:08:40.614Z,-51
2018-07-16T04:09:45.378Z,-51
2018-07-16T04:10:43.954Z,-51
2018-07-16T04:11:41.462Z,-51
2018-07-16T04:12:42.933Z,-50
2018-07-16T04:13:39.266Z,-51
2018-07-16T04:14:40.799Z,-50
2018-07-16T04:15:38.533Z,-51
2018-07-16T04:16:38.362Z,-51
2018-07-16T04:17:36.467Z,-51
2018-07-16T04:18:35.038Z,-51
2018-07-16T04:19:37.324Z,-51
2018-07-16T04:20:37.059Z,-51
2018-07-16T04:22:46.356Z,-51
2018-07-16T04:23:45.781Z,-51
2018-07-16T04:24:43.650Z,-51
2018-07-16T04:25:41.566Z,-50
2018-07-16T04:26:43.363Z,-50
2018-07-16T04:27:49.112Z,-50
2018-07-16T04:28:48.145Z,-51
2018-07-16T04:29:52.582Z,-53
2018-07-16T04:30:50.558Z,-51
2018-07-16T04:31:51.052Z,-51
2018-07-16T04:32:52.777Z,-51
2018-07-16T04:35:02.904Z,-51
2018-07-16T04:36:07.894Z,-51
2018-07-16T04:37:07.519Z,-51
2018-07-16T04:38:05.413Z,-51
2018-07-16T04:39:09.309Z,-51
2018-07-16T04:40:15.792Z,-51
2018-07-16T04:41:14.582Z,-51
2018-07-16T04:42:26.533Z,-50
2018-07-16T04:43:26.666Z,-50
2018-07-16T04:44:27.443Z,-50
2018-07-16T04:45:27.655Z,-50
2018-07-16T04:46:27.659Z,-51
2018-07-16T04:48:34.357Z,-51
2018-07-16T04:49:36.747Z,-51
2018-07-16T04:50:38.375Z,-51
2018-07-16T04:51:41.853Z,-51
2018-07-16T04:52:51.409Z,-51
2018-07-16T04:53:54.079Z,-50
2018-07-16T04:54:54.615Z,-51
2018-07-16T04:55:52.774Z,-50
2018-07-16T04:56:47.789Z,-51
2018-07-16T04:57:47.986Z,-49
2018-07-16T04:58:45.696Z,-50
2018-07-16T04:59:43.363Z,-50
2018-07-16T05:00:50.500Z,-52
2018-07-16T05:02:57.612Z,-51
2018-07-16T05:03:55.551Z,-50
2018-07-16T05:04:53.372Z,-50
2018-07-16T05:05:56.387Z,-50
2018-07-16T05:06:55.198Z,-50
2018-07-16T05:07:53.084Z,-50
2018-07-16T05:08:57.533Z,-50
2018-07-16T05:09:53.053Z,-50
2018-07-16T05:10:52.917Z,-50
2018-07-16T05:11:55.047Z,-50
2018-07-16T05:13:10.370Z,-51
2018-07-16T05:14:15.445Z,-51
2018-07-16T05:15:14.198Z,-50
2018-07-16T05:16:20.049Z,-50
2018-07-16T05:17:19.918Z,-50
2018-07-16T05:18:26.120Z,-51
2018-07-16T05:19:23.258Z,-50
2018-07-16T05:20:27.510Z,-51
2018-07-16T05:21:24.029Z,-51
2018-07-16T05:22:24.869Z,-51
2018-07-16T05:23:24.083Z,-50
2018-07-16T05:25:36.006Z,-51
2018-07-16T05:26:20.568Z,-51
2018-07-16T05:27:19.417Z,-49
2018-07-16T05:28:16.948Z,-50
2018-07-16T05:29:17.970Z,-50
2018-07-16T05:30:18.453Z,-50
2018-07-16T05:31:22.128Z,-50
2018-07-16T05:32:19.623Z,-51
2018-07-16T05:33:18.680Z,-51
2018-07-16T05:34:17.876Z,-50
2018-07-16T05:35:16.007Z,-50
2018-07-16T05:37:23.682Z,-50
2018-07-16T05:38:27.783Z,-51
2018-07-16T05:39:27.761Z,-51
2018-07-16T05:40:26.571Z,-51
2018-07-16T05:41:26.942Z,-50
2018-07-16T05:42:27.952Z,-50
2018-07-16T05:43:28.543Z,-51
2018-07-16T05:44:27.203Z,-51
2018-07-16T05:45:24.835Z,-51
2018-07-16T05:46:30.646Z,-51
2018-07-16T05:47:28.686Z,-50
2018-07-16T05:49:35.847Z,-51
2018-07-16T05:50:35.798Z,-51
2018-07-16T05:51:33.704Z,-50
2018-07-16T05:52:31.123Z,-50
2018-07-16T05:53:34.637Z,-51
2018-07-16T05:54:34.901Z,-50
2018-07-16T05:55:28.916Z,-50
2018-07-16T05:56:33.525Z,-51
2018-07-16T05:58:44.320Z,-51
2018-07-16T05:59:44.420Z,-51
2018-07-16T06:00:46.283Z,-51
2018-07-16T06:01:44.071Z,-51
2018-07-16T06:02:42.023Z,-51
2018-07-16T06:03:39.795Z,-50
2018-07-16T06:04:37.675Z,-50
2018-07-16T06:05:38.838Z,-50
2018-07-16T06:06:36.324Z,-50
2018-07-16T06:07:39.502Z,-50
2018-07-16T06:08:37.621Z,-50
2018-07-16T06:09:37.165Z,-52
2018-07-16T06:10:36.393Z,-50
2018-07-16T06:12:52.331Z,-51
2018-07-16T06:13:53.027Z,-50
2018-07-16T06:14:54.274Z,-50
2018-07-16T06:15:53.709Z,-51
2018-07-16T06:16:53.104Z,-51
2018-07-16T06:17:55.013Z,-51
2018-07-16T06:18:53.640Z,-51
2018-07-16T06:19:51.591Z,-50
2018-07-16T06:20:49.457Z,-52
2018-07-16T06:21:48.451Z,-51
2018-07-16T06:22:46.148Z,-51
2018-07-16T06:23:52.493Z,-52
2018-07-16T06:24:47.833Z,-51
2018-07-16T06:25:45.321Z,-51
2018-07-16T06:26:43.442Z,-51
2018-07-16T06:28:46.740Z,-51
2018-07-16T06:29:49.016Z,-50
2018-07-16T06:30:45.319Z,-51
2018-07-16T06:31:44.113Z,-51
2018-07-16T06:32:45.525Z,-51
2018-07-16T06:33:48.139Z,-50
2018-07-16T06:34:47.877Z,-50
2018-07-16T06:35:49.257Z,-50
2018-07-16T06:36:47.348Z,-51
2018-07-16T06:39:07.795Z,-53
2018-07-16T06:40:07.496Z,-50
2018-07-16T06:41:06.639Z,-51
2018-07-16T06:42:09.362Z,-51
2018-07-16T06:43:05.057Z,-51
2018-07-16T06:44:11.471Z,-51
2018-07-16T06:45:12.532Z,-51
2018-07-16T06:46:11.262Z,-51
2018-07-16T06:47:06.593Z,-51
2018-07-16T06:48:08.244Z,-51
2018-07-16T06:50:16.900Z,-51
2018-07-16T06:51:14.780Z,-51
2018-07-16T06:52:11.564Z,-51
2018-07-16T06:53:15.942Z,-50
2018-07-16T06:54:15.330Z,-51
2018-07-16T06:55:13.192Z,-50
2018-07-16T06:56:20.545Z,-52
2018-07-16T06:57:16.193Z,-51
2018-07-16T06:58:14.714Z,-51
2018-07-16T06:59:12.810Z,-50
2018-07-16T07:00:10.527Z,-51
2018-07-16T07:01:12.350Z,-50
2018-07-16T07:02:11.563Z,-51
2018-07-16T07:03:17.378Z,-50
2018-07-16T07:05:33.530Z,-50
2018-07-16T07:06:30.608Z,-50
2018-07-16T07:07:30.367Z,-50
2018-07-16T07:08:30.965Z,-50
2018-07-16T07:09:36.034Z,-50
2018-07-16T07:10:37.135Z,-50
2018-07-16T07:11:34.793Z,-50
2018-07-16T07:12:36.952Z,-50
2018-07-16T07:13:34.486Z,-50
2018-07-16T07:14:30.234Z,-50
2018-07-16T07:15:34.476Z,-50
2018-07-16T07:16:33.519Z,-50
2018-07-16T07:18:49.646Z,-50
2018-07-16T07:19:53.241Z,-49
2018-07-16T07:20:54.591Z,-50
2018-07-16T07:21:53.631Z,-51
2018-07-16T07:22:51.284Z,-50
2018-07-16T07:23:45.767Z,-50
2018-07-16T07:24:46.357Z,-50
2018-07-16T07:25:50.167Z,-50
2018-07-16T07:26:48.521Z,-50
2018-07-16T07:27:49.883Z,-50
2018-07-16T07:28:51.212Z,-50
2018-07-16T07:29:52.835Z,-50
2018-07-16T07:30:53.789Z,-50
2018-07-16T07:33:09.447Z,-50
2018-07-16T07:34:03.484Z,-50
2018-07-16T07:35:03.080Z,-50
2018-07-16T07:36:02.324Z,-50
2018-07-16T07:37:00.216Z,-50
2018-07-16T07:37:59.048Z,-50
2018-07-16T07:39:01.214Z,-49
2018-07-16T07:39:58.905Z,-50
2018-07-16T07:41:01.988Z,-50
2018-07-16T07:41:58.860Z,-50
2018-07-16T07:43:05.654Z,-51
2018-07-16T07:44:09.199Z,-50
2018-07-16T07:45:05.501Z,-50
2018-07-16T07:46:07.027Z,-51
2018-07-16T07:47:06.270Z,-51
2018-07-16T07:48:05.468Z,-51
2018-07-16T07:50:14.719Z,-50
2018-07-16T07:51:22.020Z,-50
2018-07-16T07:52:16.966Z,-50
2018-07-16T07:53:23.578Z,-50
2018-07-16T07:54:20.272Z,-50
2018-07-16T07:55:18.872Z,-50
2018-07-16T07:56:23.850Z,-50
2018-07-16T07:57:21.805Z,-51
2018-07-16T07:58:26.203Z,-50
2018-07-16T07:59:22.028Z,-50
2018-07-16T08:00:24.302Z,-50
2018-07-16T08:01:20.660Z,-50
2018-07-16T08:03:26.541Z,-50
2018-07-16T08:04:30.318Z,-50
2018-07-16T08:05:25.609Z,-51
2018-07-16T08:06:24.409Z,-50
2018-07-16T08:07:25.169Z,-50
2018-07-16T08:08:25.122Z,-51
2018-07-16T08:09:26.051Z,-52
2018-07-16T08:10:27.246Z,-52
2018-07-16T08:11:27.612Z,-51
2018-07-16T08:12:23.969Z,-50
2018-07-16T08:13:28.173Z,-50
2018-07-16T08:14:30.187Z,-50
2018-07-16T08:15:29.504Z,-50
2018-07-16T08:16:27.302Z,-53
2018-07-16T08:17:28.100Z,-50
2018-07-16T08:18:28.801Z,-50
2018-07-16T08:19:24.844Z,-51
2018-07-16T08:21:32.810Z,-51
2018-07-16T08:22:33.546Z,-50
2018-07-16T08:23:38.776Z,-50
2018-07-16T08:24:43.977Z,-50
2018-07-16T08:25:54.447Z,-50
2018-07-16T08:26:54.710Z,-50
2018-07-16T08:27:54.265Z,-50
2018-07-16T08:28:54.346Z,-53
2018-07-16T08:29:57.771Z,-50
2018-07-16T08:30:56.717Z,-50
2018-07-16T08:31:58.623Z,-51
2018-07-16T08:32:59.050Z,-50
2018-07-16T08:35:06.407Z,-50
2018-07-16T08:36:05.762Z,-51
2018-07-16T08:37:06.926Z,-50
2018-07-16T08:38:06.170Z,-50
2018-07-16T08:39:07.337Z,-50
2018-07-16T08:40:04.933Z,-50
2018-07-16T08:41:04.773Z,-50
2018-07-16T08:42:04.473Z,-50
2018-07-16T08:44:15.242Z,-51
2018-07-16T08:45:12.936Z,-51
2018-07-16T08:46:12.465Z,-50
2018-07-16T08:47:13.491Z,-50
2018-07-16T08:48:13.055Z,-51
2018-07-16T08:49:10.917Z,-50
2018-07-16T08:50:12.122Z,-53
2018-07-16T08:51:13.138Z,-51
2018-07-16T08:52:12.410Z,-51
2018-07-16T08:53:05.484Z,-50
2018-07-16T08:54:07.333Z,-51
2018-07-16T08:56:23.269Z,-50
2018-07-16T08:57:19.617Z,-50
2018-07-16T08:58:20.063Z,-50
2018-07-16T08:59:25.527Z,-50
2018-07-16T09:00:24.187Z,-49
2018-07-16T09:01:27.008Z,-50
2018-07-16T09:02:19.964Z,-51
2018-07-16T09:03:18.875Z,-52
2018-07-16T09:04:19.563Z,-51
2018-07-16T09:05:19.040Z,-51
2018-07-16T09:07:26.793Z,-51
2018-07-16T09:08:33.442Z,-49
2018-07-16T09:09:40.364Z,-51
2018-07-16T09:10:37.026Z,-50
2018-07-16T09:11:37.294Z,-50
2018-07-16T09:12:35.107Z,-51
2018-07-16T09:13:30.519Z,-50
2018-07-16T09:14:32.353Z,-54
2018-07-16T09:15:33.326Z,-52
2018-07-16T09:17:41.487Z,-51
2018-07-16T09:18:47.905Z,-51
2018-07-16T09:19:42.506Z,-50
2018-07-16T09:20:40.409Z,-51
2018-07-16T09:21:42.864Z,-51
2018-07-16T09:22:41.760Z,-51
2018-07-16T09:23:41.511Z,-51
2018-07-16T09:24:34.651Z,-50
2018-07-16T09:25:42.145Z,-51
2018-07-16T09:27:50.476Z,-51
2018-07-16T09:28:47.001Z,-51
2018-07-16T09:29:50.015Z,-50
2018-07-16T09:30:47.536Z,-50
2018-07-16T09:31:45.442Z,-51
2018-07-16T09:32:47.619Z,-52
2018-07-16T09:33:45.636Z,-51
2018-07-16T09:34:49.533Z,-51
2018-07-16T09:35:49.792Z,-50
2018-07-16T09:36:46.209Z,-50
2018-07-16T09:37:48.119Z,-50
2018-07-16T09:38:52.101Z,-51
2018-07-16T09:40:01.414Z,-50
2018-07-16T09:41:01.114Z,-51
2018-07-16T09:43:12.311Z,-51
2018-07-16T09:44:13.496Z,-51
2018-07-16T09:45:24.794Z,-50
2018-07-16T09:46:20.547Z,-50
2018-07-16T09:47:26.933Z,-50
2018-07-16T09:48:29.628Z,-51
2018-07-16T09:49:32.681Z,-49
2018-07-16T09:50:35.467Z,-49
2018-07-16T09:51:41.747Z,-49
2018-07-16T09:52:40.731Z,-50
2018-07-16T09:54:44.304Z,-49
2018-07-16T09:55:46.481Z,-48
2018-07-16T09:56:41.950Z,-49
2018-07-16T09:57:43.435Z,-48
2018-07-16T09:58:39.661Z,-49
2018-07-16T09:59:42.768Z,-52
2018-07-16T10:00:41.570Z,-49
2018-07-16T10:01:44.117Z,-49
2018-07-16T10:02:43.776Z,-48
2018-07-16T10:03:50.084Z,-49
2018-07-16T10:04:49.936Z,-49
2018-07-16T10:05:53.778Z,-50
2018-07-16T10:06:48.660Z,-48
2018-07-16T10:07:46.887Z,-49
2018-07-16T10:08:45.211Z,-49
2018-07-16T10:10:52.154Z,-49
2018-07-16T10:11:55.209Z,-48
2018-07-16T10:12:52.974Z,-49
2018-07-16T10:13:55.265Z,-49
2018-07-16T10:14:52.874Z,-49
2018-07-16T10:15:54.806Z,-48
2018-07-16T10:16:54.821Z,-49
2018-07-16T10:17:54.365Z,-49
2018-07-16T10:18:56.786Z,-49
2018-07-16T10:19:53.468Z,-49
2018-07-16T10:20:51.316Z,-48
2018-07-16T10:21:49.325Z,-49
2018-07-16T10:22:48.191Z,-49
2018-07-16T10:24:52.937Z,-49
2018-07-16T10:26:00.543Z,-49
2018-07-16T10:26:59.266Z,-49
2018-07-16T10:28:01.005Z,-49
2018-07-16T10:28:59.056Z,-49
2018-07-16T10:29:57.911Z,-49
2018-07-16T10:31:01.422Z,-48
2018-07-16T10:31:59.510Z,-49
2018-07-16T10:32:58.166Z,-48
2018-07-16T10:35:10.406Z,-49
2018-07-16T10:36:08.681Z,-50
2018-07-16T10:37:06.084Z,-49
2018-07-16T10:38:04.098Z,-50
2018-07-16T10:39:06.528Z,-50
2018-07-16T10:40:01.714Z,-49
2018-07-16T10:41:03.058Z,-49
2018-07-16T10:42:07.342Z,-50
2018-07-16T10:43:10.290Z,-49
2018-07-16T10:45:25.640Z,-50
2018-07-16T10:46:29.574Z,-50
2018-07-16T10:47:28.400Z,-50
2018-07-16T10:48:32.905Z,-49
2018-07-16T10:49:30.414Z,-49
2018-07-16T10:50:31.582Z,-49
2018-07-16T10:51:29.032Z,-49
2018-07-16T10:52:23.746Z,-49
2018-07-16T10:53:28.955Z,-48
2018-07-16T10:54:28.196Z,-49
2018-07-16T10:55:27.058Z,-50
2018-07-16T10:56:24.236Z,-49
2018-07-16T10:57:25.422Z,-50
2018-07-16T10:59:29.781Z,-49
2018-07-16T11:00:32.723Z,-50
2018-07-16T11:01:31.959Z,-50
2018-07-16T11:02:29.768Z,-49
2018-07-16T11:03:30.095Z,-50
2018-07-16T11:04:27.562Z,-49
2018-07-16T11:05:25.455Z,-51
2018-07-16T11:06:23.386Z,-49
2018-07-16T11:07:25.964Z,-51
2018-07-16T11:08:24.624Z,-51
2018-07-16T11:09:23.381Z,-52
2018-07-16T11:10:19.779Z,-51
2018-07-16T11:12:39.264Z,-50
2018-07-16T11:13:37.343Z,-50
2018-07-16T11:14:40.607Z,-49
2018-07-16T11:15:38.568Z,-51
2018-07-16T11:16:42.848Z,-51
2018-07-16T11:17:43.918Z,-48
2018-07-16T11:18:38.883Z,-48
2018-07-16T11:19:36.897Z,-52
2018-07-16T11:20:38.103Z,-48
2018-07-16T11:21:39.536Z,-49
2018-07-16T11:22:38.661Z,-48
2018-07-16T11:24:47.714Z,-49
2018-07-16T11:25:51.529Z,-51
2018-07-16T11:26:59.167Z,-51
2018-07-16T11:28:01.212Z,-49
2018-07-16T11:29:05.694Z,-50
2018-07-16T11:29:59.194Z,-49
2018-07-16T11:31:00.862Z,-51
2018-07-16T11:31:57.255Z,-51
2018-07-16T11:32:58.162Z,-51
2018-07-16T11:35:04.803Z,-49
2018-07-16T11:36:05.246Z,-48
2018-07-16T11:37:02.905Z,-51
2018-07-16T11:38:00.826Z,-49
2018-07-16T11:38:58.574Z,-48
2018-07-16T11:39:56.713Z,-49
2018-07-16T11:40:59.076Z,-49
2018-07-16T11:41:54.625Z,-50
2018-07-16T11:42:57.732Z,-49
2018-07-16T11:43:53.173Z,-51
2018-07-16T11:44:53.584Z,-51
2018-07-16T11:45:54.012Z,-51
2018-07-16T11:46:56.910Z,-51
2018-07-16T11:47:55.621Z,-51
2018-07-16T11:50:04.958Z,-49
2018-07-16T11:51:10.076Z,-48
2018-07-16T11:52:08.152Z,-49
2018-07-16T11:53:08.761Z,-49
2018-07-16T11:54:11.029Z,-49
2018-07-16T11:55:11.254Z,-49
2018-07-16T11:56:08.454Z,-50
2018-07-16T11:57:12.009Z,-48
2018-07-16T11:58:11.932Z,-49
2018-07-16T11:59:11.212Z,-49
2018-07-16T12:01:18.816Z,-50
2018-07-16T12:02:26.644Z,-49
2018-07-16T12:03:28.224Z,-48
2018-07-16T12:04:27.359Z,-48
2018-07-16T12:05:28.290Z,-48
2018-07-16T12:06:31.027Z,-48
2018-07-16T12:07:27.049Z,-48
2018-07-16T12:08:29.010Z,-48
2018-07-16T12:09:39.628Z,-49
2018-07-16T12:10:37.755Z,-48
2018-07-16T12:11:20.871Z,-49
2018-07-16T12:13:43.012Z,-49
2018-07-16T12:14:39.842Z,-49
2018-07-16T12:15:42.096Z,-49
2018-07-16T12:16:39.614Z,-48
2018-07-16T12:17:40.971Z,-49
2018-07-16T12:18:37.670Z,-49
2018-07-16T12:19:42.104Z,-48
2018-07-16T12:20:37.342Z,-48
2018-07-16T12:21:38.537Z,-48
2018-07-16T12:23:44.288Z,-49
2018-07-16T12:24:47.279Z,-49
2018-07-16T12:25:46.189Z,-48
2018-07-16T12:26:51.232Z,-50
2018-07-16T12:27:51.674Z,-48
2018-07-16T12:28:47.880Z,-49
2018-07-16T12:29:49.851Z,-51
2018-07-16T12:30:49.685Z,-50
2018-07-16T12:31:48.044Z,-48
2018-07-16T12:32:49.423Z,-48
2018-07-16T12:33:47.153Z,-48
2018-07-16T12:34:47.483Z,-48
2018-07-16T12:35:47.860Z,-48
2018-07-16T12:37:56.151Z,-48
2018-07-16T12:38:59.598Z,-48
2018-07-16T12:40:00.795Z,-48
2018-07-16T12:40:56.176Z,-48
2018-07-16T12:41:58.568Z,-47
2018-07-16T12:42:56.487Z,-48
2018-07-16T12:43:55.173Z,-48
2018-07-16T12:44:50.429Z,-48
2018-07-16T12:45:51.331Z,-50
2018-07-16T12:46:48.780Z,-49
2018-07-16T12:49:02.809Z,-48
2018-07-16T12:49:59.348Z,-48
2018-07-16T12:51:01.176Z,-48
2018-07-16T12:52:03.996Z,-48
2018-07-16T12:53:02.001Z,-48
2018-07-16T12:54:11.964Z,-48
2018-07-16T12:55:08.499Z,-48
2018-07-16T12:56:07.353Z,-48
2018-07-16T12:57:08.967Z,-48
2018-07-16T12:58:10.196Z,-48
2018-07-16T12:59:15.520Z,-48
2018-07-16T13:01:22.256Z,-49
2018-07-16T13:02:19.756Z,-48
2018-07-16T13:03:22.812Z,-47
2018-07-16T13:04:25.437Z,-48
2018-07-16T13:05:20.952Z,-48
2018-07-16T13:06:27.087Z,-48
2018-07-16T13:07:21.874Z,-48
2018-07-16T13:08:22.601Z,-47
2018-07-16T13:09:28.130Z,-47
2018-07-16T13:10:22.463Z,-49
2018-07-16T13:11:28.187Z,-47
2018-07-16T13:12:31.009Z,-48
2018-07-16T13:13:28.802Z,-48
2018-07-16T13:15:53.256Z,-48
2018-07-16T13:16:47.914Z,-48
2018-07-16T13:17:46.422Z,-48
2018-07-16T13:18:45.606Z,-47
2018-07-16T13:19:43.172Z,-48
2018-07-16T13:20:41.262Z,-48
2018-07-16T13:21:49.661Z,-48
2018-07-16T13:22:45.056Z,-48
2018-07-16T13:23:44.069Z,-48
2018-07-16T13:24:46.186Z,-47
2018-07-16T13:25:48.311Z,-48
2018-07-16T13:27:54.406Z,-48
2018-07-16T13:28:52.486Z,-48
2018-07-16T13:29:54.031Z,-47
2018-07-16T13:30:50.836Z,-48
2018-07-16T13:31:49.496Z,-48
2018-07-16T13:32:50.760Z,-48
2018-07-16T13:33:50.925Z,-47
2018-07-16T13:34:48.608Z,-48
2018-07-16T13:35:54.438Z,-48
2018-07-16T13:36:54.015Z,-47
2018-07-16T13:37:52.825Z,-49
2018-07-16T13:40:03.465Z,-48
2018-07-16T13:41:02.675Z,-49
2018-07-16T13:41:57.821Z,-49
2018-07-16T13:43:04.975Z,-49
2018-07-16T13:44:12.620Z,-49
2018-07-16T13:45:09.084Z,-49
2018-07-16T13:46:10.225Z,-48
2018-07-16T13:47:08.066Z,-49
2018-07-16T13:48:12.183Z,-49
2018-07-16T13:49:08.854Z,-48
2018-07-16T13:51:16.013Z,-49
2018-07-16T13:52:13.444Z,-49
2018-07-16T13:53:16.900Z,-49
2018-07-16T13:54:15.867Z,-50
2018-07-16T13:55:25.447Z,-48
2018-07-16T13:56:23.506Z,-49
2018-07-16T13:57:24.469Z,-48
2018-07-16T13:58:26.048Z,-48
2018-07-16T13:59:31.979Z,-49
2018-07-16T14:00:27.586Z,-49
2018-07-16T14:01:27.271Z,-48
2018-07-16T14:02:26.187Z,-49
2018-07-16T14:03:26.534Z,-47
2018-07-16T14:05:33.219Z,-48
2018-07-16T14:06:34.738Z,-47
2018-07-16T14:07:29.751Z,-48
2018-07-16T14:08:29.603Z,-49
2018-07-16T14:09:27.733Z,-52
2018-07-16T14:10:28.104Z,-47
2018-07-16T14:11:23.340Z,-47
2018-07-16T14:12:36.987Z,-48
2018-07-16T14:13:34.890Z,-48
2018-07-16T14:14:35.747Z,-47
2018-07-16T14:15:30.178Z,-48
2018-07-16T14:16:29.982Z,-47
2018-07-16T14:17:27.778Z,-48
2018-07-16T14:18:28.383Z,-55
2018-07-16T14:19:30.126Z,-48
2018-07-16T14:20:30.515Z,-47
2018-07-16T14:21:28.682Z,-48
2018-07-16T14:23:39.117Z,-48
2018-07-16T14:24:37.137Z,-48
2018-07-16T14:25:35.843Z,-48
2018-07-16T14:26:33.789Z,-48
2018-07-16T14:27:30.198Z,-48
2018-07-16T14:28:39.795Z,-48
2018-07-16T14:29:34.999Z,-48
2018-07-16T14:30:35.074Z,-52
2018-07-16T14:31:34.858Z,-48
2018-07-16T14:32:38.036Z,-47
2018-07-16T14:33:41.183Z,-48
2018-07-16T14:34:42.089Z,-48
2018-07-16T14:35:40.160Z,-48
2018-07-16T14:36:39.772Z,-48
2018-07-16T14:37:41.345Z,-47
2018-07-16T14:38:40.391Z,-47
2018-07-16T14:39:40.091Z,-47
2018-07-16T14:41:46.407Z,-48
2018-07-16T14:42:47.866Z,-48
2018-07-16T14:43:46.514Z,-48
2018-07-16T14:44:53.680Z,-48
2018-07-16T14:45:51.136Z,-48
2018-07-16T14:46:49.084Z,-48
2018-07-16T14:47:51.368Z,-48
2018-07-16T14:48:50.293Z,-47
2018-07-16T14:49:51.449Z,-48
2018-07-16T14:50:57.628Z,-48
2018-07-16T14:51:54.928Z,-48
2018-07-16T14:52:49.756Z,-48
2018-07-16T14:53:47.658Z,-49
2018-07-16T14:55:56.651Z,-48
2018-07-16T14:56:52.213Z,-47
2018-07-16T14:57:52.636Z,-47
2018-07-16T14:58:48.057Z,-48
2018-07-16T14:59:45.790Z,-48
2018-07-16T15:00:46.545Z,-47
2018-07-16T15:01:47.729Z,-49
2018-07-16T15:02:49.208Z,-48
2018-07-16T15:03:46.341Z,-48
2018-07-16T15:04:43.887Z,-47
2018-07-16T15:05:41.914Z,-47
2018-07-16T15:06:43.308Z,-48
2018-07-16T15:08:54.605Z,-48
2018-07-16T15:09:52.615Z,-48